Time;durP1;ratioP1;P1;durP2;ratioP2;P2;SDS_P1;SDS_P2;PMS_P1;PMS_P2;Temp;Humidity;BMP_temperature;BMP_pressure;BME280_temperature;BME280_humidity;BME280_pressure;Samples;Min_cycle;Max_cycle;Signal;HPM_P1;HPM_P2
2021/05/23 00:02:04;;;;;;;1.85;1.27;;;16.40;74.10;;;;;;5152626;27;20051;-56
2021/05/23 00:04:30;;;;;;;2.58;1.27;;;16.40;74.10;;;;;;5154572;27;20677;-56
2021/05/23 00:06:56;;;;;;;1.95;0.88;;;16.40;74.10;;;;;;5154766;27;20118;-56
2021/05/23 00:09:22;;;;;;;2.40;1.38;;;16.40;74.10;;;;;;5154358;27;20414;-55
2021/05/23 00:11:48;;;;;;;2.92;1.30;;;16.40;74.00;;;;;;5152971;27;20050;-54
2021/05/23 00:14:17;;;;;;;1.38;1.20;;;16.40;74.10;;;;;;5154450;27;20050;-56
2021/05/23 00:16:43;;;;;;;1.40;1.15;;;16.40;74.00;;;;;;5154414;27;20508;-54
2021/05/23 00:19:09;;;;;;;2.70;1.30;;;16.40;74.10;;;;;;5154585;27;20058;-56
2021/05/23 00:21:34;;;;;;;2.63;1.00;;;16.30;74.10;;;;;;5153378;27;20047;-55
2021/05/23 00:24:00;;;;;;;1.20;1.00;;;16.40;74.10;;;;;;5148629;27;20047;-56
2021/05/23 00:26:27;;;;;;;2.17;1.20;;;16.40;74.10;;;;;;5150195;27;20050;-55
2021/05/23 00:28:53;;;;;;;1.33;1.23;;;16.30;74.00;;;;;;5154250;27;20071;-53
2021/05/23 00:31:19;;;;;;;2.13;1.20;;;16.30;74.00;;;;;;5154551;27;20043;-56
2021/05/23 00:33:45;;;;;;;1.48;1.35;;;16.40;74.70;;;;;;5152785;27;20058;-56
2021/05/23 00:36:10;;;;;;;1.42;1.20;;;16.40;74.10;;;;;;5154437;27;20054;-57
2021/05/23 00:38:36;;;;;;;1.80;1.05;;;16.30;74.00;;;;;;5154451;27;20479;-55
2021/05/23 00:41:02;;;;;;;1.20;1.10;;;16.30;74.00;;;;;;5154033;27;20050;-57
2021/05/23 00:43:28;;;;;;;1.80;1.23;;;16.30;74.00;;;;;;5152338;27;20054;-57
2021/05/23 00:45:54;;;;;;;3.13;1.23;;;16.30;74.10;;;;;;5154324;27;20431;-54
2021/05/23 00:48:21;;;;;;;1.58;1.20;;;16.30;74.00;;;;;;5154455;27;20460;-54
2021/05/23 00:50:48;;;;;;;2.15;1.05;;;16.30;74.00;;;;;;5154488;27;20103;-54
2021/05/23 00:53:15;;;;;;;1.70;1.15;;;16.40;74.10;;;;;;5154383;27;20052;-55
2021/05/23 00:55:41;;;;;;;2.15;1.17;;;16.30;74.00;;;;;;5152172;27;20074;-54
2021/05/23 00:58:07;;;;;;;1.15;0.98;;;16.30;74.00;;;;;;5154084;27;20038;-54
2021/05/23 01:00:39;;;;;;;1.98;1.40;;;16.40;74.00;;;;;;5154289;27;20047;-53
2021/05/23 01:03:25;;;;;;;1.10;1.00;;;16.30;74.00;;;;;;5154339;27;20039;-54
2021/05/23 01:05:56;;;;;;;1.70;1.10;;;16.30;74.10;;;;;;5152420;27;20043;-54
2021/05/23 01:08:23;;;;;;;2.17;1.13;;;16.30;74.00;;;;;;5157006;27;20110;-54
2021/05/23 01:11:05;;;;;;;1.92;1.10;;;16.30;74.00;;;;;;5157751;27;20392;-54
2021/05/23 01:13:39;;;;;;;1.83;1.00;;;16.40;74.00;;;;;;5158027;27;20047;-54
2021/05/23 01:16:17;;;;;;;2.50;1.10;;;16.30;74.10;;;;;;5156446;27;20062;-54
2021/05/23 01:18:45;;;;;;;1.10;0.98;;;16.30;74.10;;;;;;5138634;27;20464;-53
2021/05/23 01:21:12;;;;;;;1.30;1.10;;;16.30;74.00;;;;;;5157810;27;20058;-53
2021/05/23 01:23:44;;;;;;;2.50;1.20;;;16.30;74.10;;;;;;5157752;27;20046;-54
2021/05/23 01:26:13;;;;;;;1.40;1.17;;;16.30;74.10;;;;;;5156296;27;20119;-54
2021/05/23 01:28:54;;;;;;;1.73;1.00;;;16.30;74.10;;;;;;5156896;27;20038;-54
2021/05/23 01:31:23;;;;;;;2.17;1.30;;;16.30;74.00;;;;;;5157694;27;20103;-54
2021/05/23 01:33:51;;;;;;;0.90;0.82;;;16.30;74.10;;;;;;5157628;27;20050;-54
2021/05/23 01:36:17;;;;;;;1.75;0.90;;;16.20;74.00;;;;;;5156069;27;20058;-51
2021/05/23 01:38:43;;;;;;;2.25;0.98;;;16.30;74.10;;;;;;5116290;28;20051;-54
2021/05/23 01:41:11;;;;;;;1.30;0.90;;;16.30;74.10;;;;;;5116311;28;20123;-54
2021/05/23 01:43:37;;;;;;;1.50;1.20;;;16.30;74.10;;;;;;5124017;27;20051;-54
2021/05/23 01:46:04;;;;;;;0.95;0.90;;;16.30;74.00;;;;;;5137343;27;20549;-51
2021/05/23 01:48:36;;;;;;;1.50;0.93;;;16.30;74.10;;;;;;5157227;27;20051;-54
2021/05/23 01:51:02;;;;;;;2.38;1.00;;;16.30;74.10;;;;;;5139140;27;20054;-47
2021/05/23 01:53:28;;;;;;;1.65;1.00;;;16.20;74.00;;;;;;5157647;27;20095;-54
2021/05/23 01:55:53;;;;;;;1.35;1.00;;;16.30;74.10;;;;;;5157539;27;20051;-55
2021/05/23 01:58:19;;;;;;;0.80;0.80;;;16.30;74.10;;;;;;5156348;27;20074;-55
2021/05/23 02:00:51;;;;;;;1.83;1.05;;;16.30;74.10;;;;;;5157025;27;20088;-54
2021/05/23 02:03:19;;;;;;;1.65;1.00;;;16.30;74.20;;;;;;5156945;27;20042;-54
2021/05/23 02:05:48;;;;;;;1.00;0.90;;;16.30;74.10;;;;;;5157042;27;20046;-55
2021/05/23 02:08:16;;;;;;;1.70;1.10;;;16.30;74.10;;;;;;5156695;27;20546;-54
2021/05/23 02:10:42;;;;;;;1.23;1.10;;;16.30;74.10;;;;;;5156852;27;20049;-53
2021/05/23 02:13:09;;;;;;;1.17;0.93;;;16.30;74.10;;;;;;5156481;27;20121;-53
2021/05/23 02:15:37;;;;;;;2.58;1.02;;;16.30;74.10;;;;;;5156773;27;20046;-56
2021/05/23 02:18:04;;;;;;;1.23;1.08;;;16.20;74.10;;;;;;5156229;27;20047;-55
2021/05/23 02:20:31;;;;;;;1.10;1.00;;;16.30;74.10;;;;;;5156655;27;20487;-52
2021/05/23 02:22:59;;;;;;;1.38;1.02;;;16.20;74.10;;;;;;5156623;27;20101;-56
2021/05/23 02:25:27;;;;;;;2.17;1.08;;;16.20;74.10;;;;;;5156781;27;20122;-56
2021/05/23 02:27:56;;;;;;;1.30;1.00;;;16.40;74.20;;;;;;5156650;27;20097;-56
2021/05/23 02:30:33;;;;;;;1.55;1.08;;;16.20;74.10;;;;;;5155967;27;20074;-53
2021/05/23 02:33:00;;;;;;;2.03;0.90;;;16.20;74.10;;;;;;5147942;27;20050;-55
2021/05/23 02:35:28;;;;;;;0.90;0.80;;;16.20;74.70;;;;;;5156466;27;20096;-56
2021/05/23 02:37:55;;;;;;;1.10;0.98;;;16.20;74.10;;;;;;5156578;27;20066;-56
2021/05/23 02:40:24;;;;;;;1.33;0.90;;;16.20;74.10;;;;;;5155798;27;20129;-56
2021/05/23 02:42:51;;;;;;;1.50;0.90;;;16.20;74.10;;;;;;5154730;27;20042;-56
2021/05/23 02:45:18;;;;;;;1.35;1.05;;;16.20;74.10;;;;;;5135065;27;20047;-55
2021/05/23 02:47:44;;;;;;;1.58;0.85;;;16.20;74.10;;;;;;5135443;27;20047;-56
2021/05/23 02:50:13;;;;;;;1.15;0.93;;;16.20;74.10;;;;;;5135210;27;20062;-54
2021/05/23 02:52:39;;;;;;;1.00;0.70;;;16.20;74.10;;;;;;5135309;27;20050;-55
2021/05/23 02:55:06;;;;;;;1.10;0.98;;;16.20;74.10;;;;;;5135366;27;20043;-56
2021/05/23 02:57:37;;;;;;;0.82;0.80;;;16.20;74.10;;;;;;5135611;27;20047;-56
2021/05/23 03:00:05;;;;;;;0.90;0.90;;;16.20;74.10;;;;;;5134938;27;20050;-54
2021/05/23 03:02:32;;;;;;;1.33;1.15;;;16.20;74.10;;;;;;5134860;27;20050;-53
2021/05/23 03:04:58;;;;;;;1.70;0.90;;;16.20;74.10;;;;;;5135207;27;20047;-56
2021/05/23 03:07:23;;;;;;;0.93;0.90;;;16.20;74.10;;;;;;5135002;27;20039;-56
2021/05/23 03:09:49;;;;;;;1.08;0.82;;;16.20;74.10;;;;;;5135072;27;20058;-54
2021/05/23 03:12:16;;;;;;;1.10;0.88;;;16.20;74.10;;;;;;5133964;27;20463;-56
2021/05/23 03:14:43;;;;;;;1.30;0.90;;;16.20;74.10;;;;;;5115369;27;20135;-55
2021/05/23 03:17:10;;;;;;;1.38;1.05;;;16.20;74.10;;;;;;5134118;27;20110;-56
2021/05/23 03:19:37;;;;;;;1.17;1.00;;;16.20;74.10;;;;;;5134161;27;20070;-55
2021/05/23 03:22:06;;;;;;;1.45;1.10;;;16.20;74.10;;;;;;5133384;27;20104;-53
2021/05/23 03:24:34;;;;;;;2.67;1.25;;;16.20;74.10;;;;;;5134224;27;20047;-51
2021/05/23 03:27:01;;;;;;;1.67;0.90;;;16.20;74.10;;;;;;5134824;27;20050;-56
2021/05/23 03:29:27;;;;;;;1.98;1.05;;;16.20;74.20;;;;;;5134302;27;20046;-57
2021/05/23 03:31:52;;;;;;;1.08;0.98;;;16.20;74.10;;;;;;5134389;27;20545;-57
2021/05/23 03:34:18;;;;;;;0.77;0.70;;;16.20;74.20;;;;;;5134305;27;20108;-57
2021/05/23 03:36:44;;;;;;;1.00;0.90;;;16.20;74.10;;;;;;5134213;27;20092;-55
2021/05/23 03:39:10;;;;;;;1.85;1.20;;;16.20;74.20;;;;;;5134552;27;20138;-56
2021/05/23 03:41:35;;;;;;;1.17;1.00;;;16.20;74.10;;;;;;5134485;27;20086;-55
2021/05/23 03:44:01;;;;;;;1.17;0.90;;;16.20;74.10;;;;;;5133924;27;20110;-56
2021/05/23 03:46:27;;;;;;;1.75;1.02;;;16.20;74.10;;;;;;5134024;27;20138;-57
2021/05/23 03:48:52;;;;;;;1.58;0.98;;;16.10;74.10;;;;;;5134496;27;20047;-57
2021/05/23 03:51:18;;;;;;;1.20;1.10;;;16.20;74.10;;;;;;5134477;27;20403;-56
2021/05/23 03:53:44;;;;;;;1.20;0.88;;;16.20;74.20;;;;;;5134204;27;20087;-55
2021/05/23 03:56:10;;;;;;;1.77;0.88;;;16.10;74.10;;;;;;5134014;27;20128;-55
2021/05/23 03:58:35;;;;;;;1.20;0.77;;;16.10;74.10;;;;;;5134187;27;20406;-56
2021/05/23 04:01:02;;;;;;;1.25;1.00;;;16.10;74.10;;;;;;5133784;27;20047;-54
2021/05/23 04:03:28;;;;;;;1.88;1.02;;;16.10;74.10;;;;;;5134166;27;20043;-57
2021/05/23 04:05:54;;;;;;;1.33;1.00;;;16.10;74.10;;;;;;5133555;27;20047;-55
2021/05/23 04:08:20;;;;;;;1.00;0.90;;;16.20;74.20;;;;;;5134108;27;20088;-56
2021/05/23 04:10:54;;;;;;;1.17;1.00;;;16.10;74.10;;;;;;5134105;27;20047;-55
2021/05/23 04:13:22;;;;;;;1.48;0.93;;;16.10;74.10;;;;;;5134060;27;20400;-56
2021/05/23 04:15:48;;;;;;;1.02;0.80;;;16.10;74.10;;;;;;5133537;27;20047;-56
2021/05/23 04:18:13;;;;;;;0.95;0.73;;;16.10;74.10;;;;;;5133710;27;20537;-56
2021/05/23 04:20:40;;;;;;;1.63;0.90;;;16.10;74.10;;;;;;5133971;27;20530;-56
2021/05/23 04:23:06;;;;;;;1.35;1.10;;;16.10;74.10;;;;;;5133967;27;20054;-56
2021/05/23 04:25:31;;;;;;;1.00;0.90;;;16.10;74.10;;;;;;5133934;27;20392;-57
2021/05/23 04:27:57;;;;;;;0.98;0.90;;;16.10;74.10;;;;;;5133770;27;20368;-56
2021/05/23 04:30:25;;;;;;;0.95;0.80;;;16.10;74.10;;;;;;5133522;28;20088;-55
2021/05/23 04:32:51;;;;;;;1.55;0.73;;;16.20;74.20;;;;;;5133622;28;20043;-54
2021/05/23 04:35:18;;;;;;;1.33;0.98;;;16.10;74.10;;;;;;5133913;28;20043;-56
2021/05/23 04:37:44;;;;;;;1.23;1.13;;;16.10;74.20;;;;;;5133543;28;20047;-52
2021/05/23 04:40:11;;;;;;;1.15;1.00;;;16.10;74.10;;;;;;5133324;28;20107;-55
2021/05/23 04:42:38;;;;;;;1.30;0.88;;;16.10;74.20;;;;;;5135481;27;20096;-55
2021/05/23 04:45:06;;;;;;;1.17;1.00;;;16.10;74.10;;;;;;5137424;27;20047;-56
2021/05/23 04:47:32;;;;;;;1.90;1.02;;;16.10;74.10;;;;;;5137501;27;20047;-57
2021/05/23 04:49:58;;;;;;;1.55;0.90;;;16.10;74.20;;;;;;5137864;27;20501;-56
2021/05/23 04:52:24;;;;;;;1.63;0.88;;;16.10;74.10;;;;;;5137817;27;20039;-56
2021/05/23 04:54:50;;;;;;;1.35;1.00;;;16.10;74.20;;;;;;5137955;27;20138;-54
2021/05/23 04:57:16;;;;;;;1.13;0.95;;;16.10;74.20;;;;;;5137641;27;20057;-56
2021/05/23 04:59:41;;;;;;;0.68;0.68;;;16.10;74.20;;;;;;5136899;27;20043;-57
2021/05/23 05:02:07;;;;;;;0.82;0.82;;;16.10;74.20;;;;;;5137430;27;20047;-56
2021/05/23 05:04:33;;;;;;;1.48;0.80;;;16.10;74.20;;;;;;5137209;27;20071;-56
2021/05/23 05:06:59;;;;;;;1.88;1.05;;;16.10;74.20;;;;;;5137515;27;20078;-56
2021/05/23 05:09:25;;;;;;;0.98;0.75;;;16.10;74.20;;;;;;5118869;27;20130;-56
2021/05/23 05:11:52;;;;;;;0.93;0.65;;;16.10;74.20;;;;;;5137083;27;20066;-54
2021/05/23 05:14:17;;;;;;;1.25;0.70;;;16.10;74.20;;;;;;5136678;27;20071;-55
2021/05/23 05:16:43;;;;;;;1.92;0.93;;;16.10;74.20;;;;;;5137378;27;20093;-54
2021/05/23 05:19:10;;;;;;;2.15;0.90;;;16.10;74.20;;;;;;5137048;27;20398;-56
2021/05/23 05:21:36;;;;;;;1.27;0.85;;;16.10;74.20;;;;;;5137254;27;20050;-53
2021/05/23 05:24:03;;;;;;;0.88;0.88;;;16.10;74.20;;;;;;5137184;27;20539;-55
2021/05/23 05:26:29;;;;;;;1.35;0.80;;;16.10;74.20;;;;;;5137127;27;20047;-53
2021/05/23 05:28:54;;;;;;;0.90;0.75;;;16.10;74.20;;;;;;5137029;27;20052;-53
2021/05/23 05:31:20;;;;;;;1.35;0.85;;;16.10;74.20;;;;;;5137016;27;20051;-52
2021/05/23 05:33:46;;;;;;;1.42;0.77;;;16.10;74.20;;;;;;5136748;27;20448;-53
2021/05/23 05:36:15;;;;;;;0.75;0.73;;;16.00;74.10;;;;;;5136671;27;20407;-56
2021/05/23 05:38:40;;;;;;;1.42;0.70;;;16.10;74.20;;;;;;5137067;27;20052;-53
2021/05/23 05:41:08;;;;;;;0.75;0.75;;;16.10;74.20;;;;;;5136692;27;20107;-53
2021/05/23 05:43:34;;;;;;;1.27;0.80;;;16.10;74.20;;;;;;5142438;27;20059;-56
2021/05/23 05:46:00;;;;;;;0.77;0.70;;;16.10;74.20;;;;;;5157400;27;20513;-54
2021/05/23 05:48:25;;;;;;;1.13;0.85;;;16.10;74.20;;;;;;5157773;27;20046;-53
2021/05/23 05:50:51;;;;;;;0.82;0.82;;;16.10;74.20;;;;;;5157306;27;20050;-55
2021/05/23 05:53:17;;;;;;;1.48;1.08;;;16.10;74.20;;;;;;5157014;27;20133;-55
2021/05/23 05:55:42;;;;;;;1.20;1.02;;;16.00;74.20;;;;;;5157028;27;20457;-50
2021/05/23 05:58:08;;;;;;;1.58;0.80;;;16.10;74.20;;;;;;5157258;27;20049;-50
2021/05/23 06:00:34;;;;;;;0.80;0.80;;;16.10;74.20;;;;;;5157322;27;20439;-50
2021/05/23 06:03:01;;;;;;;1.95;1.40;;;16.10;74.20;;;;;;5157248;27;20126;-55
2021/05/23 06:05:27;;;;;;;1.10;1.00;;;16.00;74.80;;;;;;5151784;27;20043;-46
2021/05/23 06:07:53;;;;;;;1.58;1.25;;;16.10;74.20;;;;;;5117981;27;20057;-49
2021/05/23 06:10:18;;;;;;;1.70;0.80;;;16.10;74.20;;;;;;5136102;27;20072;-54
2021/05/23 06:12:44;;;;;;;1.95;1.15;;;16.10;74.20;;;;;;5136201;27;20463;-53
2021/05/23 06:15:11;;;;;;;1.05;0.80;;;16.00;74.10;;;;;;5136083;27;20415;-55
2021/05/23 06:17:36;;;;;;;1.20;1.00;;;16.10;74.20;;;;;;5135874;27;20051;-55
2021/05/23 06:20:05;;;;;;;1.40;1.00;;;16.10;74.20;;;;;;5135909;27;20388;-56
2021/05/23 06:22:31;;;;;;;0.70;0.63;;;16.00;74.20;;;;;;5136142;27;20464;-55
2021/05/23 06:24:56;;;;;;;0.70;0.70;;;16.10;74.20;;;;;;5135970;27;20054;-53
2021/05/23 06:27:22;;;;;;;1.90;1.00;;;16.10;74.20;;;;;;5136030;27;20065;-51
2021/05/23 06:29:48;;;;;;;1.13;0.70;;;16.10;74.20;;;;;;5136031;27;20130;-49
2021/05/23 06:32:14;;;;;;;1.00;0.90;;;16.00;74.10;;;;;;5135706;27;20043;-50
2021/05/23 06:34:40;;;;;;;1.40;0.90;;;16.10;74.20;;;;;;5135999;27;20046;-48
2021/05/23 06:37:06;;;;;;;0.90;0.80;;;16.10;74.20;;;;;;5135323;27;20066;-54
2021/05/23 06:39:32;;;;;;;1.67;0.80;;;16.10;74.20;;;;;;5135984;27;20092;-55
2021/05/23 06:41:58;;;;;;;1.08;0.90;;;16.10;74.20;;;;;;5136115;27;20380;-47
2021/05/23 06:44:23;;;;;;;0.80;0.80;;;16.10;74.20;;;;;;5148395;27;20051;-53
2021/05/23 06:46:49;;;;;;;1.00;0.85;;;16.10;74.20;;;;;;5156620;27;20047;-50
2021/05/23 06:49:15;;;;;;;1.13;0.68;;;16.10;74.20;;;;;;5156910;27;20079;-48
2021/05/23 06:51:41;;;;;;;0.60;0.60;;;16.10;74.20;;;;;;5153148;27;20061;-49
2021/05/23 06:54:07;;;;;;;2.17;0.80;;;16.10;74.20;;;;;;5138572;27;20051;-52
2021/05/23 06:56:32;;;;;;;1.50;1.10;;;16.10;74.20;;;;;;5135786;27;20054;-48
2021/05/23 06:58:58;;;;;;;1.08;0.88;;;16.10;74.20;;;;;;5135460;27;20054;-48
2021/05/23 07:01:24;;;;;;;1.02;0.80;;;16.10;74.20;;;;;;5135395;27;20035;-48
2021/05/23 07:03:50;;;;;;;0.90;0.90;;;16.10;74.20;;;;;;5135168;27;20058;-50
2021/05/23 07:06:15;;;;;;;0.70;0.70;;;16.10;74.10;;;;;;5145897;27;20103;-48
2021/05/23 07:08:41;;;;;;;2.30;0.90;;;16.00;74.10;;;;;;5155787;27;20042;-46
2021/05/23 07:11:07;;;;;;;1.02;0.77;;;16.10;74.10;;;;;;5149174;27;20058;-55
2021/05/23 07:13:33;;;;;;;1.10;1.00;;;16.10;74.10;;;;;;5125657;27;20122;-45
2021/05/23 07:15:59;;;;;;;1.75;0.85;;;16.20;74.20;;;;;;5134495;27;20554;-49
2021/05/23 07:18:25;;;;;;;2.17;1.23;;;16.10;74.20;;;;;;5134099;27;20047;-46
2021/05/23 07:20:51;;;;;;;1.80;0.80;;;16.10;74.10;;;;;;5134164;27;20051;-52
2021/05/23 07:23:18;;;;;;;1.45;1.10;;;16.10;74.10;;;;;;5134138;27;20414;-47
2021/05/23 07:25:44;;;;;;;0.65;0.60;;;16.20;74.20;;;;;;5134262;27;20047;-45
2021/05/23 07:28:10;;;;;;;0.90;0.68;;;16.20;74.20;;;;;;5134398;27;20043;-50
2021/05/23 07:30:35;;;;;;;0.70;0.70;;;16.20;74.20;;;;;;5134361;27;20050;-47
2021/05/23 07:33:02;;;;;;;1.33;0.70;;;16.20;74.20;;;;;;5133772;27;20039;-47
2021/05/23 07:35:27;;;;;;;1.88;0.68;;;16.20;74.20;;;;;;5134017;27;20399;-45
2021/05/23 07:37:53;;;;;;;0.80;0.80;;;16.20;74.20;;;;;;5133679;27;20054;-46
2021/05/23 07:40:19;;;;;;;1.40;0.85;;;16.20;74.10;;;;;;5134129;27;20039;-45
2021/05/23 07:42:44;;;;;;;0.70;0.70;;;16.30;74.20;;;;;;5133989;27;20544;-46
2021/05/23 07:45:11;;;;;;;1.85;0.85;;;16.20;74.20;;;;;;5153135;27;20387;-45
2021/05/23 07:47:37;;;;;;;1.10;0.80;;;16.20;74.10;;;;;;5154649;27;20094;-47
2021/05/23 07:50:05;;;;;;;1.25;0.95;;;16.20;74.10;;;;;;5154376;27;20125;-52
2021/05/23 07:52:30;;;;;;;1.10;1.00;;;16.20;74.10;;;;;;5154384;27;20043;-49
2021/05/23 07:54:57;;;;;;;0.98;0.70;;;16.20;74.10;;;;;;5154481;27;20057;-49
2021/05/23 07:57:22;;;;;;;1.17;1.00;;;16.20;74.10;;;;;;5135983;27;20042;-51
2021/05/23 07:59:48;;;;;;;1.02;0.60;;;16.30;74.10;;;;;;5154429;27;20054;-50
2021/05/23 08:02:14;;;;;;;0.68;0.68;;;16.20;74.00;;;;;;5154370;27;20062;-47
2021/05/23 08:04:39;;;;;;;1.92;0.90;;;16.30;74.10;;;;;;5154272;27;20100;-46
2021/05/23 08:07:05;;;;;;;1.10;0.80;;;16.30;74.10;;;;;;5135305;27;20049;-51
2021/05/23 08:09:31;;;;;;;0.68;0.68;;;16.30;74.00;;;;;;5133387;27;20039;-45
2021/05/23 08:11:56;;;;;;;0.85;0.82;;;16.30;74.10;;;;;;5133418;27;20112;-43
2021/05/23 08:14:22;;;;;;;0.77;0.70;;;16.30;74.00;;;;;;5133634;27;20070;-47
2021/05/23 08:16:48;;;;;;;1.23;0.80;;;16.30;74.00;;;;;;5132935;27;20050;-50
2021/05/23 08:19:15;;;;;;;0.77;0.60;;;16.30;74.00;;;;;;5133392;27;20092;-45
2021/05/23 08:21:41;;;;;;;0.75;0.60;;;16.30;74.00;;;;;;5133667;27;20059;-49
2021/05/23 08:24:09;;;;;;;1.23;0.88;;;16.30;74.00;;;;;;5133455;27;20457;-51
2021/05/23 08:26:35;;;;;;;1.23;0.80;;;16.30;74.00;;;;;;5133328;27;20096;-53
2021/05/23 08:29:01;;;;;;;0.77;0.60;;;16.40;74.00;;;;;;5133084;28;20483;-49
2021/05/23 08:31:27;;;;;;;1.15;0.70;;;16.30;74.00;;;;;;5133580;28;20075;-51
2021/05/23 08:33:53;;;;;;;0.70;0.70;;;16.40;74.00;;;;;;5133129;28;20584;-51
2021/05/23 08:36:20;;;;;;;0.47;0.47;;;16.40;74.00;;;;;;5133270;28;20047;-51
2021/05/23 08:38:46;;;;;;;0.70;0.70;;;16.40;74.00;;;;;;5132890;28;20070;-52
2021/05/23 08:41:18;;;;;;;0.55;0.52;;;16.40;74.00;;;;;;5133232;28;20498;-53
2021/05/23 08:43:45;;;;;;;0.80;0.70;;;16.40;74.00;;;;;;5137833;27;20078;-56
2021/05/23 08:46:11;;;;;;;0.50;0.50;;;16.40;73.90;;;;;;5154152;27;20452;-55
2021/05/23 08:48:39;;;;;;;0.70;0.70;;;16.40;73.90;;;;;;5154000;27;20043;-54
2021/05/23 08:51:05;;;;;;;1.85;0.65;;;16.40;73.90;;;;;;5153815;27;20054;-53
2021/05/23 08:53:31;;;;;;;0.90;0.80;;;16.40;73.90;;;;;;5154038;27;20403;-58
2021/05/23 08:55:57;;;;;;;2.15;0.80;;;16.40;73.90;;;;;;5153421;27;20043;-52
2021/05/23 08:58:24;;;;;;;0.60;0.60;;;16.40;73.90;;;;;;5153760;27;20050;-55
2021/05/23 09:00:50;;;;;;;1.10;0.70;;;16.40;73.90;;;;;;5153710;27;20096;-54
2021/05/23 09:03:16;;;;;;;0.70;0.70;;;16.40;73.90;;;;;;5153689;27;20437;-56
2021/05/23 09:05:50;;;;;;;0.57;0.57;;;16.40;73.90;;;;;;5146256;27;20043;-56
2021/05/23 09:08:21;;;;;;;0.60;0.60;;;16.50;73.90;;;;;;5132926;27;20139;-48
2021/05/23 09:10:52;;;;;;;1.17;0.77;;;16.50;73.80;;;;;;5132478;27;20045;-52
2021/05/23 09:13:34;;;;;;;0.80;0.70;;;16.50;73.80;;;;;;5132628;27;20047;-55
2021/05/23 09:16:09;;;;;;;0.65;0.65;;;16.50;73.80;;;;;;5132426;27;20138;-54
2021/05/23 09:18:48;;;;;;;0.98;0.70;;;16.40;73.80;;;;;;5132652;27;20064;-58
2021/05/23 09:21:23;;;;;;;0.82;0.63;;;16.50;73.80;;;;;;5129538;28;20055;-60
2021/05/23 09:23:58;;;;;;;0.80;0.60;;;16.50;73.80;;;;;;5125086;28;20440;-50
2021/05/23 09:26:31;;;;;;;0.80;0.70;;;16.50;73.80;;;;;;5130495;28;20057;-58
2021/05/23 09:29:12;;;;;;;0.90;0.90;;;16.50;73.80;;;;;;5134881;27;20047;-58
2021/05/23 09:31:38;;;;;;;1.00;0.80;;;16.50;73.80;;;;;;5136066;27;20051;-60
2021/05/23 09:34:05;;;;;;;1.02;0.80;;;16.50;73.80;;;;;;5135802;27;20403;-53
2021/05/23 09:36:44;;;;;;;1.35;0.93;;;16.50;73.80;;;;;;5136411;27;20419;-60
2021/05/23 09:39:13;;;;;;;1.15;0.80;;;16.60;73.80;;;;;;5136208;27;20041;-50
2021/05/23 09:41:39;;;;;;;1.63;0.95;;;16.50;73.80;;;;;;5134095;27;20453;-61
2021/05/23 09:44:10;;;;;;;1.33;0.85;;;16.50;73.70;;;;;;5135990;27;20070;-58
2021/05/23 09:46:36;;;;;;;1.00;0.77;;;16.50;73.70;;;;;;5136135;27;20047;-59
2021/05/23 09:49:02;;;;;;;0.82;0.80;;;16.50;73.70;;;;;;5135741;27;20043;-61
2021/05/23 09:51:28;;;;;;;1.38;0.80;;;16.50;73.70;;;;;;5136096;27;20051;-60
2021/05/23 09:54:01;;;;;;;1.17;0.73;;;16.50;73.70;;;;;;5135680;27;20096;-60
2021/05/23 09:56:31;;;;;;;0.60;0.60;;;16.50;73.70;;;;;;5135597;27;20043;-57
2021/05/23 09:58:57;;;;;;;1.67;0.80;;;16.50;73.70;;;;;;5135642;27;20131;-58
2021/05/23 10:01:28;;;;;;;0.98;0.90;;;16.50;73.70;;;;;;5135860;27;20071;-54
2021/05/23 10:03:56;;;;;;;0.70;0.70;;;16.50;73.70;;;;;;5131299;27;20138;-57
2021/05/23 10:06:35;;;;;;;0.80;0.70;;;16.50;73.80;;;;;;5131134;27;20043;-47
2021/05/23 10:09:02;;;;;;;1.45;1.00;;;16.50;73.70;;;;;;5135388;27;20050;-53
2021/05/23 10:11:28;;;;;;;1.38;0.77;;;16.50;73.70;;;;;;5134589;27;20510;-59
2021/05/23 10:13:54;;;;;;;0.60;0.60;;;16.50;73.70;;;;;;5135714;27;20039;-57
2021/05/23 10:16:21;;;;;;;0.77;0.70;;;16.50;73.70;;;;;;5135718;27;20539;-59
2021/05/23 10:18:49;;;;;;;0.82;0.70;;;16.50;73.70;;;;;;5134690;27;20422;-59
2021/05/23 10:21:15;;;;;;;0.65;0.63;;;16.50;73.70;;;;;;5135105;27;20512;-52
2021/05/23 10:23:52;;;;;;;1.15;0.80;;;16.50;73.70;;;;;;5135379;27;20131;-52
2021/05/23 10:26:21;;;;;;;1.00;0.90;;;16.50;73.70;;;;;;5117034;27;20039;-59
2021/05/23 10:28:51;;;;;;;1.42;1.10;;;16.50;73.70;;;;;;5135323;27;20050;-59
2021/05/23 10:31:31;;;;;;;1.55;1.10;;;16.50;73.70;;;;;;5134394;27;20040;-56
2021/05/23 10:33:57;;;;;;;0.65;0.65;;;16.50;73.70;;;;;;5134853;27;20047;-57
2021/05/23 10:36:29;;;;;;;0.70;0.70;;;16.50;73.70;;;;;;5134753;27;20096;-56
2021/05/23 10:38:57;;;;;;;0.85;0.85;;;16.50;73.70;;;;;;5134934;27;20047;-52
2021/05/23 10:41:23;;;;;;;1.10;1.00;;;16.50;73.70;;;;;;5134524;27;20043;-41
2021/05/23 10:43:57;;;;;;;1.30;0.70;;;16.50;73.80;;;;;;5139979;27;20455;-58
2021/05/23 10:46:23;;;;;;;0.80;0.80;;;16.50;73.70;;;;;;5132227;27;20035;-56
2021/05/23 10:48:56;;;;;;;1.17;1.00;;;16.50;73.70;;;;;;5134416;27;20046;-53
2021/05/23 10:51:22;;;;;;;0.85;0.73;;;16.50;73.70;;;;;;5132934;27;20099;-55
2021/05/23 10:53:49;;;;;;;0.95;0.82;;;16.50;73.70;;;;;;5136036;27;20043;-55
2021/05/23 10:56:29;;;;;;;1.20;1.10;;;16.50;73.70;;;;;;5134135;27;20547;-53
2021/05/23 10:59:01;;;;;;;1.40;0.90;;;16.50;73.70;;;;;;5129638;27;20122;-58
2021/05/23 11:01:47;;;;;;;1.45;1.00;;;16.50;73.80;;;;;;5128203;27;20050;-53
2021/05/23 11:04:14;;;;;;;1.13;0.73;;;16.50;73.70;;;;;;5131627;27;20428;-52
2021/05/23 11:06:42;;;;;;;1.88;1.00;;;16.40;73.70;;;;;;5130631;27;20047;-50
2021/05/23 11:09:16;;;;;;;0.98;0.98;;;16.50;73.70;;;;;;5130591;27;20487;-52
2021/05/23 11:11:43;;;;;;;1.17;0.95;;;16.40;73.70;;;;;;5128829;27;20088;-55
2021/05/23 11:14:23;;;;;;;1.25;0.90;;;16.50;73.70;;;;;;5130000;27;20051;-46
2021/05/23 11:16:57;;;;;;;0.70;0.70;;;16.50;73.70;;;;;;5128577;27;20042;-54
2021/05/23 11:19:33;;;;;;;0.90;0.70;;;16.50;73.70;;;;;;5127695;27;20096;-45
2021/05/23 11:21:59;;;;;;;1.40;1.00;;;16.40;73.70;;;;;;5131141;27;20546;-47
2021/05/23 11:24:30;;;;;;;1.50;0.98;;;16.50;73.70;;;;;;5130198;27;20043;-53
2021/05/23 11:26:57;;;;;;;1.10;1.00;;;16.40;73.70;;;;;;5130677;27;20043;-54
2021/05/23 11:29:26;;;;;;;0.65;0.65;;;16.40;73.70;;;;;;5130299;27;20039;-49
2021/05/23 11:31:52;;;;;;;0.93;0.88;;;16.40;73.70;;;;;;5130239;27;20129;-57
2021/05/23 11:34:21;;;;;;;1.65;0.68;;;16.50;73.70;;;;;;5131625;27;20513;-51
2021/05/23 11:36:48;;;;;;;0.85;0.85;;;16.50;73.70;;;;;;5129793;27;20058;-52
2021/05/23 11:39:19;;;;;;;1.77;0.90;;;16.40;73.70;;;;;;5130393;27;20046;-51
2021/05/23 11:41:48;;;;;;;1.90;0.85;;;16.40;73.70;;;;;;5130316;27;20143;-51
2021/05/23 11:44:14;;;;;;;0.70;0.70;;;16.40;73.70;;;;;;5131621;27;20051;-50
2021/05/23 11:46:50;;;;;;;0.73;0.73;;;16.40;73.70;;;;;;5141431;27;20186;-50
2021/05/23 11:49:20;;;;;;;0.70;0.70;;;16.40;73.70;;;;;;5130780;27;20096;-55
2021/05/23 11:51:46;;;;;;;0.75;0.75;;;16.50;73.70;;;;;;5130033;27;20127;-53
2021/05/23 11:54:13;;;;;;;1.40;0.85;;;16.40;73.70;;;;;;5130879;27;20039;-53
2021/05/23 11:56:39;;;;;;;0.80;0.80;;;16.40;73.70;;;;;;5130798;27;20051;-51
2021/05/23 11:59:07;;;;;;;0.80;0.80;;;16.40;73.70;;;;;;5130219;27;20072;-53
2021/05/23 12:01:37;;;;;;;0.95;0.77;;;16.40;74.30;;;;;;5130123;27;20232;-50
2021/05/23 12:04:05;;;;;;;1.10;0.90;;;16.40;73.70;;;;;;5130540;27;20075;-56
2021/05/23 12:06:34;;;;;;;1.25;1.15;;;16.40;73.70;;;;;;5130473;27;20074;-53
2021/05/23 12:09:11;;;;;;;0.90;0.90;;;16.50;73.70;;;;;;5130398;27;20059;-58
2021/05/23 12:11:39;;;;;;;1.15;0.80;;;16.50;73.70;;;;;;5130249;27;20490;-57
2021/05/23 12:14:16;;;;;;;1.38;0.90;;;16.50;73.70;;;;;;5128925;27;20587;-58
2021/05/23 12:16:42;;;;;;;1.00;0.70;;;16.50;73.80;;;;;;5129801;27;20058;-56
2021/05/23 12:19:08;;;;;;;1.98;0.90;;;16.50;73.70;;;;;;5130035;27;20407;-53
2021/05/23 12:21:33;;;;;;;0.90;0.90;;;16.50;73.70;;;;;;5129954;27;20042;-57
2021/05/23 12:23:59;;;;;;;0.70;0.70;;;16.50;73.70;;;;;;5130076;27;20057;-56
2021/05/23 12:26:26;;;;;;;0.98;0.90;;;16.40;73.70;;;;;;5129249;27;20046;-54
2021/05/23 12:28:53;;;;;;;0.75;0.75;;;16.40;73.70;;;;;;5128994;27;20134;-54
2021/05/23 12:31:21;;;;;;;0.98;0.95;;;16.40;73.70;;;;;;5128922;27;20038;-56
2021/05/23 12:33:51;;;;;;;0.73;0.73;;;16.40;73.70;;;;;;5126747;28;20043;-54
2021/05/23 12:36:18;;;;;;;0.73;0.73;;;16.50;73.70;;;;;;5128974;27;20092;-54
2021/05/23 12:39:08;;;;;;;0.85;0.75;;;16.50;73.70;;;;;;5129478;28;20043;-57
2021/05/23 12:41:39;;;;;;;1.08;0.98;;;16.50;73.70;;;;;;5127320;28;20047;-49
2021/05/23 12:44:24;;;;;;;0.60;0.60;;;16.50;73.70;;;;;;5120180;27;20055;-57
2021/05/23 12:46:51;;;;;;;0.70;0.70;;;16.40;73.70;;;;;;5130569;27;20039;-59
2021/05/23 12:49:19;;;;;;;1.00;0.90;;;16.50;73.70;;;;;;5131926;27;20410;-57
2021/05/23 12:51:48;;;;;;;0.88;0.70;;;16.50;73.70;;;;;;5129133;27;20043;-56